Time;durP1;ratioP1;P1;durP2;ratioP2;P2;SDS_P1;SDS_P2;PMS_P1;PMS_P2;Temp;Humidity;BMP_temperature;BMP_pressure;BME280_temperature;BME280_humidity;BME280_pressure;Samples;Min_cycle;Max_cycle;Signal;HPM_P1;HPM_P2
2021/09/03 00:01:46;;;;;;;6.15;3.92;;;;;;;16.59;65.12;100940.03;5094213;28;20535;-73
2021/09/03 00:04:14;;;;;;;7.22;4.35;;;;;;;16.46;65.67;100937.41;5094288;28;20043;-71
2021/09/03 00:06:43;;;;;;;6.97;4.32;;;;;;;16.34;66.01;100941.00;5094634;28;20102;-71
2021/09/03 00:09:11;;;;;;;7.90;4.70;;;;;;;16.31;65.97;100939.41;5094199;28;20073;-70
2021/09/03 00:11:39;;;;;;;7.55;4.47;;;;;;;16.40;65.97;100940.53;5094538;28;20040;-72
2021/09/03 00:14:08;;;;;;;6.93;4.43;;;;;;;16.22;67.02;100936.53;5094071;28;20105;-74
2021/09/03 00:16:37;;;;;;;7.05;4.40;;;;;;;16.19;66.66;100928.66;5094456;28;20039;-72
2021/09/03 00:19:06;;;;;;;7.57;4.35;;;;;;;16.23;66.72;100943.63;5094223;28;20481;-72
2021/09/03 00:21:34;;;;;;;7.70;4.65;;;;;;;16.22;66.84;100936.53;5094453;28;20431;-72
2021/09/03 00:24:04;;;;;;;6.47;4.43;;;;;;;16.23;66.62;100938.25;5094322;28;20040;-73
2021/09/03 00:26:32;;;;;;;7.13;4.90;;;;;;;15.97;67.71;100935.59;5094213;28;20044;-73
2021/09/03 00:29:02;;;;;;;6.13;4.03;;;;;;;16.10;67.41;100937.38;5076062;28;20511;-72
2021/09/03 00:31:32;;;;;;;6.57;4.15;;;;;;;15.96;68.00;100933.00;5093851;28;20040;-71
2021/09/03 00:34:00;;;;;;;6.43;4.38;;;;;;;16.21;66.81;100924.00;5093969;28;20048;-71
2021/09/03 00:36:30;;;;;;;8.52;4.63;;;;;;;16.25;66.80;100925.53;5093658;28;20040;-73
2021/09/03 00:39:04;;;;;;;7.87;4.20;;;;;;;16.10;67.74;100935.56;5093973;28;20075;-72
2021/09/03 00:41:33;;;;;;;7.93;4.65;;;;;;;16.18;67.34;100932.31;5093670;28;20345;-72
2021/09/03 00:44:06;;;;;;;6.95;4.22;;;;;;;16.12;67.62;100925.56;5094013;28;20040;-71
2021/09/03 00:46:35;;;;;;;7.45;4.82;;;;;;;16.08;67.75;100925.88;5093351;28;20397;-71
2021/09/03 00:49:06;;;;;;;8.05;4.38;;;;;;;16.19;67.32;100931.34;5075959;28;20078;-71
2021/09/03 00:51:34;;;;;;;9.70;4.68;;;;;;;16.21;67.28;100924.00;5093468;28;20047;-71
2021/09/03 00:54:03;;;;;;;6.72;4.03;;;;;;;16.26;67.35;100927.25;5075855;28;20048;-71
2021/09/03 00:56:34;;;;;;;8.30;4.60;;;;;;;16.35;66.98;100921.19;5093408;28;20043;-71
2021/09/03 00:59:02;;;;;;;8.65;4.40;;;;;;;16.25;67.25;100918.31;5093297;28;20040;-71
2021/09/03 01:01:30;;;;;;;6.03;4.00;;;;;;;16.19;67.58;100920.56;5093117;28;20525;-71
2021/09/03 01:04:00;;;;;;;8.55;4.40;;;;;;;16.24;67.34;100918.41;5093220;28;20039;-71
2021/09/03 01:06:29;;;;;;;7.75;4.40;;;;;;;16.07;68.50;100913.41;5093194;28;20123;-72
2021/09/03 01:08:59;;;;;;;7.78;4.35;;;;;;;16.17;68.13;100912.63;5093459;28;20051;-70
2021/09/03 01:11:27;;;;;;;8.13;4.63;;;;;;;16.13;68.34;100905.75;5093181;28;20477;-70
2021/09/03 01:13:58;;;;;;;8.63;5.00;;;;;;;16.08;68.59;100904.34;5093262;28;20044;-70
2021/09/03 01:16:26;;;;;;;8.15;4.53;;;;;;;16.07;68.52;100899.94;5093234;28;20036;-70
2021/09/03 01:18:58;;;;;;;6.90;4.30;;;;;;;15.93;69.20;100915.28;5093673;28;20402;-70
2021/09/03 01:21:28;;;;;;;6.80;4.47;;;;;;;15.85;69.94;100906.88;5093337;28;20089;-70
2021/09/03 01:23:58;;;;;;;8.75;5.47;;;;;;;15.94;69.78;100902.69;5093037;28;20070;-69
2021/09/03 01:26:29;;;;;;;7.68;4.68;;;;;;;16.13;68.74;100899.50;5093212;28;20044;-70
2021/09/03 01:28:57;;;;;;;6.72;4.53;;;;;;;16.00;69.37;100905.75;5092885;28;20040;-70
2021/09/03 01:31:25;;;;;;;9.70;4.70;;;;;;;15.95;69.98;100907.09;5074792;28;20056;-70
2021/09/03 01:33:57;;;;;;;8.40;4.70;;;;;;;15.88;70.19;100895.91;5093430;28;20048;-69
2021/09/03 01:36:27;;;;;;;8.43;4.95;;;;;;;15.87;69.97;100904.94;5092895;28;20044;-70
2021/09/03 01:38:55;;;;;;;7.75;4.95;;;;;;;16.11;69.35;100904.97;5093148;28;20089;-70
2021/09/03 01:41:25;;;;;;;6.80;4.65;;;;;;;16.28;68.64;100898.38;5092834;28;20040;-73
2021/09/03 01:43:54;;;;;;;8.68;4.55;;;;;;;16.38;68.45;100893.16;5093318;28;20040;-73
2021/09/03 01:46:22;;;;;;;8.18;4.88;;;;;;;16.29;68.59;100897.38;5092429;28;20100;-74
2021/09/03 01:48:51;;;;;;;7.80;4.40;;;;;;;16.13;69.54;100891.44;5093086;28;20113;-73
2021/09/03 01:51:21;;;;;;;8.07;4.53;;;;;;;16.10;69.92;100894.34;5092886;28;20127;-75
2021/09/03 01:53:49;;;;;;;8.55;4.35;;;;;;;16.08;69.76;100890.91;5092842;28;20040;-73
2021/09/03 01:56:17;;;;;;;7.45;4.68;;;;;;;15.99;70.32;100887.91;5092412;28;20044;-73
2021/09/03 01:58:47;;;;;;;7.50;4.60;;;;;;;15.87;70.89;100885.25;5092740;28;20074;-75
2021/09/03 02:01:15;;;;;;;7.25;4.90;;;;;;;15.83;71.38;100892.69;5092653;28;20040;-74
2021/09/03 02:03:44;;;;;;;7.43;4.63;;;;;;;16.07;70.35;100881.97;5092908;28;20054;-72
2021/09/03 02:06:12;;;;;;;6.75;4.78;;;;;;;15.96;70.60;100893.50;5093050;28;20040;-72
2021/09/03 02:08:42;;;;;;;7.00;4.35;;;;;;;15.79;71.64;100884.94;5092922;28;20048;-71
2021/09/03 02:11:10;;;;;;;6.95;4.60;;;;;;;15.83;71.44;100884.63;5092995;28;20054;-71
2021/09/03 02:13:41;;;;;;;8.32;4.72;;;;;;;16.06;70.39;100885.63;5092482;28;20393;-72
2021/09/03 02:16:11;;;;;;;7.25;4.82;;;;;;;16.18;69.82;100889.25;5074435;28;20532;-71
2021/09/03 02:18:39;;;;;;;8.23;4.68;;;;;;;15.98;70.26;100880.81;5092133;28;20055;-71
2021/09/03 02:21:07;;;;;;;7.80;4.78;;;;;;;16.01;70.20;100894.03;5092821;28;20048;-72
2021/09/03 02:23:37;;;;;;;7.20;4.85;;;;;;;15.93;70.35;100888.38;5092473;28;20105;-72
2021/09/03 02:26:06;;;;;;;8.82;4.53;;;;;;;15.73;71.44;100881.75;5074828;28;20493;-72
2021/09/03 02:28:34;;;;;;;6.93;4.50;;;;;;;15.79;71.13;100888.47;5092393;28;20040;-72
2021/09/03 02:31:03;;;;;;;7.38;4.65;;;;;;;15.66;72.11;100871.53;5092256;28;20098;-72
2021/09/03 02:33:35;;;;;;;7.22;4.97;;;;;;;15.73;71.61;100870.97;5092030;28;20082;-72
2021/09/03 02:36:04;;;;;;;8.43;4.57;;;;;;;15.82;71.59;100861.34;5091019;28;20040;-72
2021/09/03 02:38:32;;;;;;;6.97;4.78;;;;;;;15.79;71.75;100869.66;5091898;28;20044;-73
2021/09/03 02:41:03;;;;;;;7.95;4.72;;;;;;;15.72;72.30;100863.00;5093788;28;20048;-74
2021/09/03 02:43:31;;;;;;;7.05;4.43;;;;;;;15.82;71.52;100860.50;5095582;28;20054;-73
2021/09/03 02:46:00;;;;;;;7.93;4.55;;;;;;;15.73;72.13;100864.75;5095991;28;20122;-74
2021/09/03 02:48:28;;;;;;;7.28;4.65;;;;;;;15.71;72.21;100869.34;5095982;28;20040;-75
2021/09/03 02:51:02;;;;;;;9.68;5.00;;;;;;;15.55;73.22;100868.72;5096163;28;20036;-74
2021/09/03 02:53:31;;;;;;;8.38;4.97;;;;;;;15.66;72.97;100867.00;5095491;28;20421;-73
2021/09/03 02:56:01;;;;;;;7.93;4.82;;;;;;;15.68;72.57;100866.88;5095873;28;20044;-75
2021/09/03 02:58:32;;;;;;;8.50;5.13;;;;;;;15.55;73.18;100856.13;5095639;28;20060;-76
2021/09/03 03:01:00;;;;;;;9.60;4.85;;;;;;;15.67;72.68;100865.16;5095596;28;20043;-76
2021/09/03 03:03:29;;;;;;;8.77;4.78;;;;;;;15.62;72.74;100860.09;5095553;28;20036;-76
2021/09/03 03:05:57;;;;;;;8.98;5.28;;;;;;;15.73;72.64;100859.38;5095604;28;20409;-76
2021/09/03 03:08:27;;;;;;;7.43;4.78;;;;;;;15.59;73.24;100859.44;5095024;28;20048;-73
2021/09/03 03:10:59;;;;;;;8.45;4.88;;;;;;;15.49;73.87;100867.31;5095759;28;20048;-73
2021/09/03 03:13:28;;;;;;;8.50;5.07;;;;;;;15.38;74.64;100860.00;5095344;28;20044;-73
2021/09/03 03:15:58;;;;;;;7.78;4.72;;;;;;;15.34;75.03;100855.78;5095416;28;20040;-73
2021/09/03 03:18:27;;;;;;;8.10;4.93;;;;;;;15.52;73.95;100850.09;5095456;28;20051;-73
2021/09/03 03:20:55;;;;;;;7.05;4.75;;;;;;;15.57;73.96;100864.06;5095448;28;20101;-73
2021/09/03 03:23:23;;;;;;;7.75;4.93;;;;;;;15.28;75.28;100864.31;5095043;28;20093;-74
2021/09/03 03:25:54;;;;;;;8.77;4.95;;;;;;;15.44;74.71;100864.06;5095450;28;20051;-73
2021/09/03 03:28:23;;;;;;;6.82;4.68;;;;;;;15.60;74.01;100859.34;5095223;28;20391;-73
2021/09/03 03:30:51;;;;;;;8.32;5.30;;;;;;;15.45;74.50;100861.28;5095351;28;20048;-73
2021/09/03 03:33:19;;;;;;;7.07;4.60;;;;;;;15.36;75.30;100859.25;5094933;28;20044;-83
2021/09/03 03:35:48;;;;;;;9.23;4.80;;;;;;;15.32;75.43;100860.41;5095162;28;20055;-74
2021/09/03 03:38:16;;;;;;;7.03;5.00;;;;;;;15.17;76.21;100862.38;5095142;28;20465;-73
2021/09/03 03:40:44;;;;;;;8.90;5.25;;;;;;;15.22;76.09;100856.66;5094762;28;20070;-73
2021/09/03 03:43:14;;;;;;;8.82;5.38;;;;;;;15.28;76.04;100853.56;5094934;28;20051;-73
2021/09/03 03:45:42;;;;;;;7.55;4.80;;;;;;;15.52;74.71;100860.84;5094223;28;20105;-73
2021/09/03 03:48:10;;;;;;;6.82;5.00;;;;;;;15.30;75.91;100858.81;5094827;28;20044;-74
2021/09/03 03:50:38;;;;;;;7.80;5.30;;;;;;;15.18;76.45;100860.53;5094531;28;20127;-74
2021/09/03 03:53:10;;;;;;;9.15;5.50;;;;;;;15.09;77.24;100847.75;5094470;28;20049;-75
2021/09/03 03:55:39;;;;;;;8.52;4.80;;;;;;;15.01;78.21;100855.47;5094321;28;20036;-73
2021/09/03 03:58:07;;;;;;;9.45;4.88;;;;;;;15.22;76.65;100853.13;5094690;28;20132;-73
2021/09/03 04:00:36;;;;;;;8.60;5.20;;;;;;;15.11;77.23;100851.19;5094266;28;20048;-74
2021/09/03 04:03:05;;;;;;;9.23;5.00;;;;;;;15.10;77.24;100854.84;5094712;28;20072;-73
2021/09/03 04:05:33;;;;;;;9.95;5.15;;;;;;;15.30;76.35;100859.66;5094284;28;20082;-73
2021/09/03 04:08:02;;;;;;;8.10;5.15;;;;;;;15.36;76.15;100863.78;5094230;28;20117;-73
2021/09/03 04:10:31;;;;;;;8.68;5.22;;;;;;;15.34;76.16;100861.16;5094083;28;20071;-73
2021/09/03 04:12:59;;;;;;;7.60;5.07;;;;;;;15.19;76.90;100851.50;5094451;28;20443;-74
2021/09/03 04:15:29;;;;;;;9.43;5.45;;;;;;;15.15;77.41;100852.66;5093999;28;20424;-71
2021/09/03 04:17:59;;;;;;;8.57;5.50;;;;;;;15.22;77.15;100856.66;5094167;28;20104;-72
2021/09/03 04:20:27;;;;;;;8.73;5.70;;;;;;;15.33;76.49;100859.44;5093522;28;20044;-72
2021/09/03 04:22:56;;;;;;;8.00;5.20;;;;;;;15.45;75.77;100861.28;5094114;28;20040;-72
2021/09/03 04:25:24;;;;;;;10.18;5.22;;;;;;;15.48;75.92;100854.84;5093536;28;20044;-76
2021/09/03 04:27:53;;;;;;;13.30;5.47;;;;;;;15.33;76.57;100859.44;5094226;28;20050;-72
2021/09/03 04:30:27;;;;;;;12.00;5.93;;;;;;;15.27;77.22;100853.66;5093726;28;20048;-74
2021/09/03 04:32:55;;;;;;;9.70;5.32;;;;;;;15.31;77.00;100850.63;5075860;28;20054;-72
2021/09/03 04:35:25;;;;;;;10.05;5.70;;;;;;;15.31;77.33;100850.63;5093826;28;20044;-78
2021/09/03 04:37:56;;;;;;;8.52;5.85;;;;;;;15.46;76.82;100857.63;5094063;28;20068;-72
2021/09/03 04:40:27;;;;;;;8.10;5.28;;;;;;;15.45;76.78;100850.53;5093130;28;20133;-77
2021/09/03 04:42:55;;;;;;;10.40;5.50;;;;;;;15.37;77.29;100849.34;5093949;28;20040;-72
2021/09/03 04:45:23;;;;;;;13.07;6.07;;;;;;;15.49;76.45;100851.16;5093714;28;20093;-77
2021/09/03 04:47:54;;;;;;;10.25;6.00;;;;;;;15.54;75.77;100843.66;5093275;28;20054;-71
2021/09/03 04:50:31;;;;;;;10.73;5.78;;;;;;;15.54;75.68;100849.03;5093241;28;20051;-71
2021/09/03 04:52:59;;;;;;;10.43;6.13;;;;;;;15.50;76.37;100850.19;5093586;28;20055;-71
2021/09/03 04:55:27;;;;;;;9.70;5.93;;;;;;;15.68;75.69;100848.06;5093069;28;20463;-73
2021/09/03 04:57:56;;;;;;;8.15;5.53;;;;;;;15.77;74.97;100847.41;5093534;28;20040;-72
2021/09/03 05:00:24;;;;;;;9.00;5.28;;;;;;;15.81;75.33;100845.34;5093400;28;20040;-71
2021/09/03 05:02:55;;;;;;;9.77;5.78;;;;;;;15.80;75.25;100846.31;5093223;28;20055;-71
2021/09/03 05:05:25;;;;;;;10.90;5.80;;;;;;;15.87;75.24;100842.22;5092839;28;20089;-77
2021/09/03 05:07:54;;;;;;;10.13;5.88;;;;;;;15.89;74.70;100838.44;5093434;28;20044;-75
2021/09/03 05:10:23;;;;;;;9.90;6.22;;;;;;;15.84;74.75;100843.31;5093133;28;20040;-74
2021/09/03 05:12:53;;;;;;;10.75;5.90;;;;;;;15.70;75.96;100848.81;5093387;28;20074;-74
2021/09/03 05:15:32;;;;;;;10.75;6.38;;;;;;;15.65;76.17;100840.22;5093066;28;20123;-75
2021/09/03 05:18:00;;;;;;;10.35;5.97;;;;;;;15.59;76.34;100838.78;5093438;28;20058;-75
2021/09/03 05:20:28;;;;;;;11.52;6.22;;;;;;;15.63;76.41;100840.34;5092332;28;20098;-73
2021/09/03 05:22:58;;;;;;;11.70;6.75;;;;;;;15.58;76.51;100845.13;5093290;28;20040;-73
2021/09/03 05:25:31;;;;;;;9.68;6.18;;;;;;;15.65;76.72;100842.91;5093111;28;20036;-76
2021/09/03 05:28:00;;;;;;;9.05;5.75;;;;;;;15.66;76.58;100831.19;5093192;28;20094;-73
2021/09/03 05:30:29;;;;;;;10.70;5.80;;;;;;;15.70;76.37;100835.34;5092940;28;20048;-76
2021/09/03 05:32:57;;;;;;;10.50;6.78;;;;;;;15.76;76.13;100839.44;5093019;28;20060;-76
2021/09/03 05:35:28;;;;;;;11.93;6.38;;;;;;;15.78;76.08;100835.66;5093066;28;20052;-74
2021/09/03 05:37:59;;;;;;;11.32;6.38;;;;;;;15.76;75.99;100839.44;5093366;28;20048;-74
2021/09/03 05:40:30;;;;;;;12.52;5.88;;;;;;;15.77;75.81;100838.47;5092895;28;20044;-79
2021/09/03 05:42:58;;;;;;;10.45;6.15;;;;;;;15.78;76.05;100830.28;5099241;28;20489;-79
2021/09/03 05:45:29;;;;;;;11.20;5.95;;;;;;;15.84;75.60;100835.22;5094350;28;20393;-80
2021/09/03 05:48:00;;;;;;;11.63;6.35;;;;;;;16.01;74.46;100826.75;5092930;28;20040;-79
2021/09/03 05:50:28;;;;;;;12.88;6.88;;;;;;;16.06;74.69;100829.13;5092568;28;20565;-81
2021/09/03 05:52:57;;;;;;;9.25;6.40;;;;;;;16.10;74.60;100829.75;5093123;28;20101;-75
2021/09/03 05:55:25;;;;;;;10.98;6.20;;;;;;;16.09;74.81;100833.41;5092930;28;20044;-75
2021/09/03 05:57:59;;;;;;;10.68;6.72;;;;;;;16.12;74.45;100833.22;5093221;28;20093;-78
2021/09/03 06:00:27;;;;;;;11.93;6.60;;;;;;;16.17;74.66;100833.72;5092986;28;20098;-73
2021/09/03 06:02:55;;;;;;;13.82;6.80;;;;;;;16.27;73.84;100823.97;5093335;28;20142;-82
2021/09/03 06:05:24;;;;;;;12.80;7.03;;;;;;;16.31;74.05;100829.03;5092654;28;20036;-73
2021/09/03 06:07:52;;;;;;;14.63;7.32;;;;;;;16.38;73.29;100824.03;5071954;28;20118;-75
2021/09/03 06:10:23;;;;;;;13.85;6.88;;;;;;;16.36;72.87;100825.97;5083971;28;20090;-74
2021/09/03 06:12:54;;;;;;;13.10;6.30;;;;;;;16.49;73.21;100815.13;5081762;28;20537;-75
2021/09/03 06:15:22;;;;;;;16.33;6.85;;;;;;;16.64;72.44;100818.50;5079283;28;20043;-76
2021/09/03 06:17:51;;;;;;;11.38;6.28;;;;;;;16.73;71.92;100818.69;5084998;28;20109;-75
2021/09/03 06:20:21;;;;;;;11.90;6.70;;;;;;;16.70;71.71;100823.47;5085042;28;20094;-75
2021/09/03 06:22:49;;;;;;;12.15;6.63;;;;;;;16.76;71.13;100823.81;5084494;28;20395;-75
2021/09/03 06:25:22;;;;;;;14.98;6.75;;;;;;;16.86;70.82;100821.28;5085013;28;20043;-75
2021/09/03 06:27:50;;;;;;;14.40;6.53;;;;;;;16.92;69.94;100826.22;5090379;28;20048;-70
2021/09/03 06:30:18;;;;;;;13.50;6.80;;;;;;;16.98;69.75;100828.41;5095853;28;20059;-70
2021/09/03 06:32:47;;;;;;;13.60;6.80;;;;;;;17.06;69.44;100819.72;5095852;28;20439;-72
2021/09/03 06:35:15;;;;;;;14.25;6.28;;;;;;;17.11;69.21;100829.19;5096241;28;20036;-70
2021/09/03 06:37:43;;;;;;;14.63;7.18;;;;;;;17.25;68.92;100827.22;5095854;28;20424;-69
2021/09/03 06:40:12;;;;;;;16.67;7.00;;;;;;;17.60;66.65;100819.91;5096704;28;20048;-70
2021/09/03 06:42:41;;;;;;;12.43;6.55;;;;;;;17.64;66.22;100821.34;5095846;28;20036;-73
2021/09/03 06:45:11;;;;;;;14.77;7.00;;;;;;;17.82;66.34;100819.03;5093315;28;20397;-71
2021/09/03 06:47:41;;;;;;;12.45;6.25;;;;;;;18.73;62.43;100815.94;5083468;28;20457;-69
2021/09/03 06:50:10;;;;;;;12.38;5.88;;;;;;;19.50;59.73;100807.44;5083540;28;20081;-68
2021/09/03 06:52:38;;;;;;;11.77;5.55;;;;;;;20.05;55.15;100807.88;5083887;28;20040;-72
2021/09/03 06:55:08;;;;;;;7.80;5.28;;;;;;;20.51;52.85;100811.81;5096051;28;20419;-71
2021/09/03 06:57:38;;;;;;;13.60;6.03;;;;;;;20.36;52.94;100810.50;5095676;28;20116;-73
2021/09/03 07:00:09;;;;;;;11.75;5.80;;;;;;;20.34;53.45;100810.63;5095888;28;20040;-72
2021/09/03 07:02:38;;;;;;;8.48;5.28;;;;;;;20.32;53.16;100811.78;5095609;28;20040;-71
2021/09/03 07:05:09;;;;;;;10.60;4.93;;;;;;;20.36;53.33;100818.63;5095922;28;20044;-72
2021/09/03 07:07:40;;;;;;;10.05;5.05;;;;;;;20.39;52.99;100819.22;5095566;28;20378;-73
2021/09/03 07:10:09;;;;;;;8.57;4.88;;;;;;;20.39;51.99;100813.78;5095628;28;20040;-72
2021/09/03 07:12:42;;;;;;;8.90;4.82;;;;;;;20.45;51.60;100815.94;5095509;28;20072;-72
2021/09/03 07:15:13;;;;;;;7.70;4.57;;;;;;;20.47;50.45;100810.41;5095326;28;20048;-72
2021/09/03 07:17:44;;;;;;;9.85;4.78;;;;;;;20.44;51.26;100816.94;5095497;28;20056;-72
2021/09/03 07:20:14;;;;;;;6.97;4.78;;;;;;;20.41;50.47;100817.19;5095461;28;20044;-72
2021/09/03 07:22:50;;;;;;;8.82;4.80;;;;;;;20.20;51.42;100813.78;5095259;28;20472;-74
2021/09/03 07:25:20;;;;;;;8.95;4.43;;;;;;;20.24;50.97;100810.63;5095388;28;20043;-72
2021/09/03 07:27:49;;;;;;;8.27;4.28;;;;;;;20.33;51.17;100813.50;5094085;28;20055;-73
2021/09/03 07:30:18;;;;;;;7.43;4.05;;;;;;;20.36;50.46;100818.63;5095144;28;20044;-72
2021/09/03 07:32:47;;;;;;;10.10;3.90;;;;;;;20.34;48.44;100818.75;5094683;28;20494;-72
2021/09/03 07:35:18;;;;;;;8.98;3.67;;;;;;;20.25;46.98;100808.78;5095382;28;20044;-72
2021/09/03 07:37:47;;;;;;;6.82;3.50;;;;;;;20.31;47.38;100810.94;5094871;28;20043;-73
2021/09/03 07:40:17;;;;;;;7.93;3.60;;;;;;;20.37;47.11;100810.38;5094953;28;20050;-72
2021/09/03 07:42:45;;;;;;;7.05;3.47;;;;;;;20.33;47.72;100813.50;5094731;28;20107;-72
2021/09/03 07:45:17;;;;;;;6.25;3.35;;;;;;;20.37;48.02;100807.66;5095037;28;20389;-72
2021/09/03 07:47:45;;;;;;;6.68;3.78;;;;;;;20.41;48.07;100811.78;5094873;28;20103;-72
2021/09/03 07:50:17;;;;;;;8.75;3.53;;;;;;;20.48;48.54;100804.84;5094973;28;20119;-72
2021/09/03 07:52:45;;;;;;;7.53;3.33;;;;;;;20.59;47.70;100809.25;5094825;28;20048;-72
2021/09/03 07:55:34;;;;;;;7.57;3.80;;;;;;;20.55;46.99;100803.25;5094728;28;20047;-72
2021/09/03 07:58:03;;;;;;;8.43;3.65;;;;;;;20.55;46.99;100808.66;5094510;28;20040;-72
2021/09/03 08:00:34;;;;;;;6.15;3.38;;;;;;;20.58;46.55;100802.13;5094433;28;20047;-72
2021/09/03 08:03:05;;;;;;;5.45;3.47;;;;;;;20.54;46.13;100797.97;5094705;28;20114;-72
2021/09/03 08:05:34;;;;;;;6.63;3.42;;;;;;;20.65;46.65;100797.81;5094638;28;20400;-72
2021/09/03 08:08:03;;;;;;;7.60;3.72;;;;;;;20.70;45.98;100794.69;5094657;28;20123;-72
2021/09/03 08:10:33;;;;;;;10.23;4.35;;;;;;;20.69;45.96;100796.56;5094301;28;20130;-72
2021/09/03 08:13:10;;;;;;;9.40;3.10;;;;;;;20.60;46.03;100801.97;5094306;28;20070;-72
2021/09/03 08:15:41;;;;;;;6.07;3.15;;;;;;;20.58;46.69;100791.28;5094091;28;20531;-72
2021/09/03 08:18:09;;;;;;;6.82;3.25;;;;;;;20.68;45.34;100791.28;5094846;28;20060;-72
2021/09/03 08:20:38;;;;;;;7.93;3.35;;;;;;;20.73;44.50;100783.56;5093587;28;20127;-73
2021/09/03 08:23:08;;;;;;;8.30;3.10;;;;;;;20.80;44.66;100790.13;5094045;28;20051;-72
2021/09/03 08:25:39;;;;;;;7.20;3.42;;;;;;;20.80;44.05;100787.41;5094164;28;20560;-72
2021/09/03 08:28:07;;;;;;;6.65;3.17;;;;;;;20.80;44.63;100790.97;5094291;28;20047;-72
2021/09/03 08:30:36;;;;;;;5.97;2.90;;;;;;;20.84;44.16;100788.81;5093612;28;20044;-72
2021/09/03 08:33:06;;;;;;;6.70;2.85;;;;;;;20.86;44.09;100784.13;5093949;28;20048;-72
2021/09/03 08:35:34;;;;;;;7.43;3.75;;;;;;;20.89;44.13;100783.81;5093932;28;20481;-72
2021/09/03 08:38:02;;;;;;;7.65;3.35;;;;;;;20.91;42.98;100787.22;5093847;28;20542;-72
2021/09/03 08:40:31;;;;;;;7.03;2.92;;;;;;;20.88;43.49;100776.69;5093878;28;20036;-72
2021/09/03 08:42:59;;;;;;;7.70;3.33;;;;;;;20.99;43.00;100790.06;5093427;28;20127;-72
2021/09/03 08:45:27;;;;;;;6.18;3.42;;;;;;;20.96;43.83;100784.97;5093329;28;20484;-72
2021/09/03 08:47:55;;;;;;;6.43;3.50;;;;;;;20.92;44.77;100786.22;5093640;28;20050;-72
2021/09/03 08:50:25;;;;;;;6.43;3.40;;;;;;;20.97;45.06;100783.09;5093754;28;20052;-72
2021/09/03 08:52:53;;;;;;;7.63;3.63;;;;;;;21.07;45.12;100782.06;5093649;28;20480;-72
2021/09/03 08:55:22;;;;;;;8.15;3.53;;;;;;;21.13;45.34;100780.59;5093793;28;20055;-72
2021/09/03 08:57:50;;;;;;;8.70;3.72;;;;;;;21.24;45.11;100772.31;5093415;28;20501;-72
2021/09/03 09:00:26;;;;;;;6.30;3.55;;;;;;;21.25;45.17;100763.16;5093306;28;20431;-72
2021/09/03 09:02:58;;;;;;;6.88;3.10;;;;;;;21.28;45.24;100762.03;5093291;28;20165;-72
2021/09/03 09:05:50;;;;;;;9.13;3.92;;;;;;;21.36;45.24;100764.88;5093641;28;20051;-70
2021/09/03 09:08:20;;;;;;;10.48;3.35;;;;;;;21.57;44.75;100762.75;5093370;28;20047;-71
2021/09/03 09:10:52;;;;;;;9.32;3.35;;;;;;;21.68;44.13;100753.56;5093168;28;20397;-73
2021/09/03 09:13:22;;;;;;;7.75;3.30;;;;;;;21.84;43.28;100752.91;5093112;28;20047;-71
2021/09/03 09:16:10;;;;;;;7.40;3.15;;;;;;;21.96;43.16;100762.53;5092763;28;20044;-70
2021/09/03 09:18:52;;;;;;;6.25;3.25;;;;;;;22.10;42.54;100753.00;5093138;28;20056;-73
2021/09/03 09:21:26;;;;;;;6.90;3.20;;;;;;;22.14;42.56;100749.84;5093465;28;20052;-72
2021/09/03 09:23:56;;;;;;;8.07;3.53;;;;;;;22.22;42.52;100746.38;5093091;28;20131;-72
2021/09/03 09:26:27;;;;;;;6.25;3.55;;;;;;;22.35;42.04;100745.97;5093131;28;20548;-72
2021/09/03 09:28:58;;;;;;;5.40;3.58;;;;;;;22.34;42.21;100744.25;5093064;28;20068;-73
2021/09/03 09:31:32;;;;;;;6.47;3.40;;;;;;;22.36;41.61;100739.50;5092913;28;20131;-72
2021/09/03 09:34:00;;;;;;;7.30;3.70;;;;;;;22.38;42.14;100741.06;5093081;28;20098;-71
2021/09/03 09:36:37;;;;;;;8.52;3.30;;;;;;;22.67;41.62;100735.34;5093307;28;20477;-70
2021/09/03 09:39:05;;;;;;;4.95;3.30;;;;;;;22.69;41.77;100740.66;5093027;28;20481;-71
2021/09/03 09:41:33;;;;;;;6.55;3.33;;;;;;;22.66;41.05;100739.06;5093147;28;20507;-70
2021/09/03 09:44:03;;;;;;;7.90;3.50;;;;;;;22.72;40.67;100743.03;5092714;28;20087;-71
2021/09/03 09:46:32;;;;;;;7.40;3.53;;;;;;;22.78;40.93;100743.25;5093300;28;20078;-71
2021/09/03 09:49:05;;;;;;;6.63;3.53;;;;;;;22.97;40.75;100730.47;5092799;28;20381;-73
2021/09/03 09:51:39;;;;;;;7.72;3.45;;;;;;;22.98;40.50;100732.19;5096457;28;20074;-72
2021/09/03 09:54:09;;;;;;;;;;;;;;;22.87;40.56;100733.28;5097892;28;20097;-72
2021/09/03 09:56:39;;;;;;;6.18;3.22;;;;;;;22.76;40.79;100728.94;5097371;28;19949;-71
2021/09/03 09:59:09;;;;;;;7.45;3.67;;;;;;;22.75;40.55;100727.25;5096599;28;20074;-72
2021/09/03 10:01:40;;;;;;;8.07;3.10;;;;;;;22.89;40.86;100727.72;5097147;28;20044;-71
2021/09/03 10:04:10;;;;;;;6.60;3.45;;;;;;;23.13;39.90;100720.53;5096682;28;20050;-72
2021/09/03 10:06:42;;;;;;;5.95;3.50;;;;;;;23.10;40.03;100720.03;5096958;28;20079;-71
2021/09/03 10:09:12;;;;;;;6.60;3.65;;;;;;;22.98;40.49;100716.72;5078926;28;20402;-71
2021/09/03 10:11:43;;;;;;;9.40;3.45;;;;;;;22.92;40.65;100711.06;5096753;28;20042;-71
2021/09/03 10:14:14;;;;;;;6.90;3.50;;;;;;;22.94;40.45;100714.47;5096463;28;20090;-71
2021/09/03 10:16:44;;;;;;;7.78;3.53;;;;;;;22.94;40.33;100711.75;5096473;28;20091;-78
2021/09/03 10:19:16;;;;;;;9.57;3.63;;;;;;;23.00;40.50;100713.84;5095765;28;20052;-72
2021/09/03 10:21:45;;;;;;;5.88;3.50;;;;;;;23.07;40.15;100709.47;5095925;28;20040;-80
2021/09/03 10:24:22;;;;;;;7.68;3.40;;;;;;;23.18;40.24;100711.06;5096406;28;20126;-71
2021/09/03 10:26:53;;;;;;;7.32;3.28;;;;;;;23.14;40.17;100707.78;5095903;28;20044;-71
2021/09/03 10:29:36;;;;;;;6.47;3.20;;;;;;;23.03;39.97;100702.63;5096241;28;20040;-72
2021/09/03 10:32:14;;;;;;;6.75;3.78;;;;;;;23.04;40.13;100698.88;5096127;28;20062;-72
2021/09/03 10:34:50;;;;;;;6.40;3.17;;;;;;;22.91;40.33;100693.06;5096823;28;20105;-72
2021/09/03 10:37:27;;;;;;;6.85;3.85;;;;;;;22.75;40.98;100694.59;5096299;28;20032;-72
2021/09/03 10:39:58;;;;;;;6.43;3.25;;;;;;;22.75;40.54;100682.88;5096042;28;20119;-72
2021/09/03 10:42:45;;;;;;;6.35;3.55;;;;;;;22.84;40.44;100688.25;5077978;28;20048;-72
2021/09/03 10:45:21;;;;;;;5.22;3.15;;;;;;;23.18;40.09;100681.97;5096201;28;20593;-72
2021/09/03 10:48:04;;;;;;;8.70;3.75;;;;;;;23.35;39.14;100691.88;5095329;28;20044;-72
2021/09/03 10:50:35;;;;;;;6.28;3.30;;;;;;;23.41;38.89;100687.66;5095977;28;20123;-72
2021/09/03 10:53:20;;;;;;;5.45;3.22;;;;;;;23.67;39.42;100679.44;5095511;28;20381;-73
2021/09/03 10:56:04;;;;;;;6.05;3.10;;;;;;;23.84;38.42;100685.78;5095706;28;20079;-72
2021/09/03 10:58:45;;;;;;;7.13;3.60;;;;;;;23.92;38.44;100678.44;5095899;28;20135;-72
2021/09/03 11:01:37;;;;;;;7.43;3.47;;;;;;;23.89;38.32;100681.53;5095230;28;20048;-72
2021/09/03 11:04:10;;;;;;;5.43;3.13;;;;;;;23.86;38.18;100670.97;5095681;28;20465;-72
2021/09/03 11:06:40;;;;;;;7.60;3.53;;;;;;;23.77;37.90;100666.53;5095946;28;20055;-72
2021/09/03 11:09:23;;;;;;;6.03;3.53;;;;;;;23.81;38.15;100658.88;5095167;28;20497;-71
2021/09/03 11:11:53;;;;;;;8.05;3.75;;;;;;;23.89;38.12;100665.19;5095457;28;20044;-72
2021/09/03 11:14:23;;;;;;;6.32;3.55;;;;;;;24.08;37.50;100669.44;5095717;28;20040;-72
2021/09/03 11:16:54;;;;;;;6.07;3.30;;;;;;;24.16;37.35;100658.56;5077172;28;20101;-73
2021/09/03 11:19:24;;;;;;;5.45;2.90;;;;;;;24.21;37.61;100668.94;5095328;28;20074;-72
2021/09/03 11:21:55;;;;;;;5.93;3.03;;;;;;;24.27;36.94;100658.22;5095377;28;20457;-72
2021/09/03 11:24:27;;;;;;;5.70;3.13;;;;;;;24.13;36.63;100660.78;5077377;28;20113;-71
2021/09/03 11:26:57;;;;;;;6.05;3.40;;;;;;;23.94;37.41;100648.34;5094821;28;20094;-73
2021/09/03 11:29:27;;;;;;;6.97;3.30;;;;;;;24.02;37.65;100639.28;5095369;28;20435;-70
2021/09/03 11:32:08;;;;;;;6.50;3.40;;;;;;;24.13;38.41;100638.97;5094796;28;20044;-71
2021/09/03 11:34:53;;;;;;;8.70;3.20;;;;;;;24.46;37.22;100640.66;5095387;28;20063;-71
2021/09/03 11:37:28;;;;;;;6.50;3.33;;;;;;;24.38;37.33;100635.22;5095142;28;20477;-71
2021/09/03 11:40:10;;;;;;;5.75;3.20;;;;;;;24.66;36.58;100641.16;5095077;28;20044;-71